Time;durP1;ratioP1;P1;durP2;ratioP2;P2;SDS_P1;SDS_P2;PMS_P1;PMS_P2;Temp;Humidity;BMP_temperature;BMP_pressure;BME280_temperature;BME280_humidity;BME280_pressure;Samples;Min_cycle;Max_cycle;Signal;HPM_P1;HPM_P2
2022/01/05 00:01:46;;;;;;;10.80;5.85;;;;;;;4.19;100.00;97721.87;1718827;82;21103;-68
2022/01/05 00:04:12;;;;;;;8.98;5.55;;;;;;;4.22;100.00;97715.39;1721533;82;21055;-68
2022/01/05 00:06:40;;;;;;;9.65;5.78;;;;;;;4.24;100.00;97711.89;1712460;82;21059;-68
2022/01/05 00:09:06;;;;;;;10.72;5.60;;;;;;;4.23;100.00;97706.77;1723919;82;20995;-68
2022/01/05 00:11:33;;;;;;;9.55;5.15;;;;;;;4.26;100.00;97695.44;1722602;82;21063;-68
2022/01/05 00:13:59;;;;;;;9.58;6.10;;;;;;;4.31;100.00;97701.61;1713040;82;20979;-68
2022/01/05 00:16:26;;;;;;;;;;;;;;;4.36;100.00;97711.52;1739560;82;21574;-68
2022/01/05 00:18:53;;;;;;;8.98;5.62;;;;;;;4.34;100.00;97709.13;1732665;81;20100;-68
2022/01/05 00:21:19;;;;;;;9.33;5.58;;;;;;;4.26;100.00;97700.83;1735367;82;21516;-68
2022/01/05 00:23:46;;;;;;;10.93;6.28;;;;;;;4.33;100.00;97703.47;1712622;82;21059;-68
2022/01/05 00:26:12;;;;;;;;;;;;;;;4.43;100.00;97702.58;1718297;82;21135;-68
2022/01/05 00:28:39;;;;;;;10.53;5.90;;;;;;;4.46;100.00;97698.78;1711856;82;20531;-68
2022/01/05 00:31:05;;;;;;;;;;;;;;;4.38;100.00;97692.67;1727919;82;21086;-68
2022/01/05 00:33:31;;;;;;;10.60;6.25;;;;;;;4.39;100.00;97691.56;1732700;81;20428;-68
2022/01/05 00:35:58;;;;;;;9.83;6.22;;;;;;;4.44;100.00;97688.84;1718904;82;21028;-68
2022/01/05 00:38:24;;;;;;;10.45;5.80;;;;;;;4.47;100.00;97683.42;1717993;82;21558;-68
2022/01/05 00:40:50;;;;;;;10.80;5.83;;;;;;;4.43;100.00;97687.22;1737598;82;21067;-68
2022/01/05 00:43:17;;;;;;;11.25;5.58;;;;;;;4.47;100.00;97682.88;1745145;82;21672;-68
2022/01/05 00:45:43;;;;;;;7.97;4.95;;;;;;;4.54;100.00;97685.25;1738520;82;21082;-68
2022/01/05 00:48:09;;;;;;;8.28;5.20;;;;;;;4.62;100.00;97678.45;1725508;82;21482;-68
2022/01/05 00:50:37;;;;;;;8.10;5.17;;;;;;;4.64;100.00;97673.03;1728866;82;21118;-68
2022/01/05 00:53:03;;;;;;;9.00;5.25;;;;;;;4.65;100.00;97663.06;1719447;82;21079;-68
2022/01/05 00:55:30;;;;;;;7.80;4.70;;;;;;;4.69;100.00;97658.72;1741031;82;20948;-68
2022/01/05 00:57:56;;;;;;;7.95;5.03;;;;;;;4.79;100.00;97658.08;1722933;81;21023;-68
2022/01/05 01:00:23;;;;;;;8.60;5.17;;;;;;;4.85;100.00;97663.67;1724208;82;20988;-68
2022/01/05 01:02:49;;;;;;;8.15;5.17;;;;;;;4.86;100.00;97662.59;1742263;82;20980;-68
2022/01/05 01:05:16;;;;;;;9.80;4.65;;;;;;;4.88;100.00;97657.73;1735351;82;21462;-68
2022/01/05 01:07:44;;;;;;;7.45;4.47;;;;;;;4.96;100.00;97658.98;1722564;82;21574;-69
2022/01/05 01:10:11;;;;;;;8.65;4.75;;;;;;;5.00;100.00;97650.04;1739007;82;20952;-69
2022/01/05 01:12:37;;;;;;;8.40;4.35;;;;;;;4.96;100.00;97641.45;1739419;82;21050;-69
2022/01/05 01:15:05;;;;;;;7.37;4.33;;;;;;;5.00;100.00;97644.64;1721260;82;21835;-69
2022/01/05 01:17:31;;;;;;;6.92;4.35;;;;;;;5.10;100.00;97634.86;1717561;82;21067;-68
2022/01/05 01:19:57;;;;;;;7.80;3.90;;;;;;;5.14;100.00;97632.63;1731048;82;21050;-68
2022/01/05 01:22:26;;;;;;;7.80;4.25;;;;;;;5.14;100.00;97633.16;1726511;82;21637;-68
2022/01/05 01:24:52;;;;;;;6.28;3.87;;;;;;;5.19;100.00;97631.23;1732833;82;21046;-68
2022/01/05 01:27:19;;;;;;;7.40;4.40;;;;;;;5.27;100.00;97609.02;1719592;82;21130;-68
2022/01/05 01:29:45;;;;;;;7.75;4.65;;;;;;;5.29;100.00;97601.42;1743444;82;21015;-68
2022/01/05 01:32:11;;;;;;;10.18;4.70;;;;;;;5.24;100.00;97593.95;1723750;82;21004;-68
2022/01/05 01:34:38;;;;;;;9.10;4.67;;;;;;;5.26;100.00;97592.56;1743070;82;21019;-68
2022/01/05 01:37:04;;;;;;;6.78;4.25;;;;;;;5.32;100.00;97591.41;1724404;82;21071;-69
2022/01/05 01:39:30;;;;;;;7.70;4.30;;;;;;;5.36;100.00;97585.69;1733354;82;21035;-68
2022/01/05 01:41:58;;;;;;;6.90;4.60;;;;;;;5.31;100.00;97586.31;1742104;82;21062;-68
2022/01/05 01:44:25;;;;;;;7.15;4.40;;;;;;;5.30;100.00;97586.86;1728520;82;21036;-69
2022/01/05 01:46:53;;;;;;;8.20;4.53;;;;;;;5.37;100.00;97580.55;1720805;82;21054;-68
2022/01/05 01:49:19;;;;;;;6.55;4.22;;;;;;;5.37;100.00;97573.00;1730809;82;21084;-68
2022/01/05 01:51:46;;;;;;;7.20;4.42;;;;;;;5.31;100.00;97574.98;1720315;82;21047;-69
2022/01/05 01:54:12;;;;;;;6.90;4.25;;;;;;;5.35;100.00;97562.49;1725170;82;21502;-68
2022/01/05 01:56:38;;;;;;;6.42;4.10;;;;;;;5.42;100.00;97565.63;1720648;82;21047;-68
2022/01/05 01:59:05;;;;;;;9.53;4.35;;;;;;;5.43;100.00;97556.99;1725791;82;21011;-68
2022/01/05 02:01:31;;;;;;;6.42;4.30;;;;;;;5.37;100.00;97547.37;1733373;82;20995;-69
2022/01/05 02:03:58;;;;;;;7.72;4.70;;;;;;;5.40;100.00;97548.14;1745218;81;21502;-69
2022/01/05 02:06:24;;;;;;;7.25;4.45;;;;;;;5.46;100.00;97549.66;1731896;82;21099;-68
2022/01/05 02:08:50;;;;;;;7.50;4.42;;;;;;;5.46;100.00;97549.12;1723750;81;21507;-69
2022/01/05 02:11:18;;;;;;;;;;;;;;;5.39;100.00;97550.03;1740508;82;21098;-69
2022/01/05 02:13:45;;;;;;;;;;;;;;;5.42;100.00;97550.02;1742402;81;20095;-68
2022/01/05 02:16:13;;;;;;;8.38;4.45;;;;;;;5.45;100.00;97543.48;1721674;81;20093;-68
2022/01/05 02:21:11;;;;;;;6.83;4.40;;;;;;;5.38;100.00;97542.24;1733953;82;21043;-69
2022/01/05 02:23:38;;;;;;;6.60;4.08;;;;;;;5.40;100.00;97539.50;1737880;82;21046;-69
2022/01/05 02:26:05;;;;;;;;;;;;;;;5.46;100.00;97528.88;1747528;82;21475;-69
2022/01/05 02:28:31;;;;;;;7.97;4.20;;;;;;;5.51;100.00;97540.96;1727122;81;20124;-69
2022/01/05 02:30:58;;;;;;;5.72;3.90;;;;;;;5.42;100.00;97533.25;1740216;82;21522;-69
2022/01/05 02:33:24;;;;;;;5.80;3.98;;;;;;;5.44;100.00;97526.23;1737748;82;21011;-69
2022/01/05 02:35:51;;;;;;;6.35;4.00;;;;;;;5.50;100.00;97528.55;1719786;82;21051;-68
2022/01/05 02:38:20;;;;;;;7.42;4.50;;;;;;;5.57;100.00;97528.73;1734064;81;20960;-69
2022/01/05 02:40:47;;;;;;;7.92;4.53;;;;;;;5.56;100.00;97523.91;1741421;81;21039;-69
2022/01/05 02:43:14;;;;;;;9.95;4.55;;;;;;;5.53;100.00;97529.31;1733223;82;21003;-69
2022/01/05 02:45:40;;;;;;;6.50;3.90;;;;;;;5.56;100.00;97529.30;1727423;82;21058;-68
2022/01/05 02:48:07;;;;;;;7.45;4.15;;;;;;;5.68;100.00;97532.34;1735807;82;20979;-69
2022/01/05 02:50:34;;;;;;;8.08;5.03;;;;;;;5.71;100.00;97534.99;1747127;82;21003;-68
2022/01/05 02:53:00;;;;;;;7.22;4.75;;;;;;;5.68;100.00;97526.94;1739320;82;21428;-69
2022/01/05 02:55:27;;;;;;;8.65;4.15;;;;;;;5.72;100.00;97521.22;1750722;82;21604;-69
2022/01/05 02:57:53;;;;;;;8.58;4.28;;;;;;;5.78;100.00;97519.22;1733075;82;21011;-69
2022/01/05 03:00:19;;;;;;;7.15;3.98;;;;;;;5.79;100.00;97521.64;1732389;82;21571;-69
2022/01/05 03:02:46;;;;;;;7.80;4.20;;;;;;;5.75;100.00;97518.47;1746841;82;21030;-69
2022/01/05 03:05:14;;;;;;;9.18;4.80;;;;;;;5.78;100.00;97523.27;1746572;82;20991;-69
2022/01/05 03:07:40;;;;;;;7.03;4.15;;;;;;;5.85;100.00;97511.01;1745709;82;21011;-69
2022/01/05 03:10:09;;;;;;;8.40;4.78;;;;;;;5.88;100.00;97520.47;1733087;82;21011;-69
2022/01/05 03:12:39;;;;;;;8.65;4.60;;;;;;;5.83;100.00;97521.31;1735512;82;21127;-69
2022/01/05 03:15:06;;;;;;;8.05;4.70;;;;;;;5.77;100.00;97517.64;1750869;80;21003;-69
2022/01/05 03:17:34;;;;;;;11.10;4.65;;;;;;;5.82;100.00;97526.99;1744787;80;20999;-69
2022/01/05 03:20:00;;;;;;;7.62;4.50;;;;;;;5.88;100.00;97513.14;1724690;82;21039;-68
2022/01/05 03:22:26;;;;;;;6.50;4.35;;;;;;;5.85;100.00;97509.66;1749728;82;21003;-69
2022/01/05 03:24:53;;;;;;;7.53;4.37;;;;;;;5.81;100.00;97497.06;1727456;82;21074;-69
2022/01/05 03:27:19;;;;;;;7.78;4.30;;;;;;;5.84;100.00;97505.92;1746349;82;21075;-69
2022/01/05 03:29:45;;;;;;;7.37;4.35;;;;;;;5.89;100.00;97515.30;1741619;82;21486;-68
2022/01/05 03:32:12;;;;;;;7.75;4.22;;;;;;;5.90;100.00;97521.77;1730324;82;21110;-69
2022/01/05 03:34:39;;;;;;;6.80;4.20;;;;;;;5.89;100.00;97518.00;1724781;82;21010;-69
2022/01/05 03:37:05;;;;;;;7.20;4.33;;;;;;;5.85;100.00;97521.81;1732014;82;21110;-69
2022/01/05 03:39:31;;;;;;;6.37;3.98;;;;;;;5.89;100.00;97520.70;1725137;82;21665;-69
2022/01/05 03:41:58;;;;;;;8.50;4.45;;;;;;;5.96;100.00;97519.77;1736988;82;21008;-69
2022/01/05 03:44:24;;;;;;;7.80;4.90;;;;;;;5.98;100.00;97520.30;1731206;82;21562;-69
2022/01/05 03:46:51;;;;;;;6.72;4.15;;;;;;;5.92;100.00;97518.21;1729041;82;21090;-69
2022/01/05 03:49:17;;;;;;;;;;;;;;;5.86;100.00;97508.60;1725691;82;20999;-68
2022/01/05 03:51:45;;;;;;;8.38;4.65;;;;;;;5.89;100.00;97503.15;1736412;81;20100;-69
2022/01/05 03:54:12;;;;;;;7.62;4.60;;;;;;;5.92;100.00;97509.30;1721875;82;21039;-68
2022/01/05 03:56:38;;;;;;;7.70;4.65;;;;;;;5.93;100.00;97509.02;1711427;82;21044;-69
2022/01/05 03:59:05;;;;;;;7.40;4.40;;;;;;;5.91;100.00;97500.42;1713151;82;21614;-69
2022/01/05 04:01:31;;;;;;;7.50;4.37;;;;;;;5.94;100.00;97491.73;1722052;82;21044;-68
2022/01/05 04:03:57;;;;;;;6.12;3.85;;;;;;;5.99;100.00;97498.38;1712010;82;21513;-69
2022/01/05 04:06:23;;;;;;;6.97;4.60;;;;;;;6.01;100.00;97498.09;1722347;82;21040;-69
2022/01/05 04:08:50;;;;;;;6.55;4.40;;;;;;;5.97;100.00;97490.33;1722610;82;21150;-69
2022/01/05 04:11:16;;;;;;;7.85;4.22;;;;;;;5.92;100.00;97487.16;1734379;82;21043;-68
2022/01/05 04:13:42;;;;;;;6.00;4.20;;;;;;;5.96;100.00;97477.91;1722736;82;20984;-69
2022/01/05 04:16:09;;;;;;;8.48;4.40;;;;;;;6.04;100.00;97484.00;1736843;82;21534;-69
2022/01/05 04:18:35;;;;;;;6.92;4.45;;;;;;;6.09;100.00;97497.42;1722826;82;20963;-69
2022/01/05 04:21:02;;;;;;;7.15;4.12;;;;;;;6.05;100.00;97500.46;1711824;82;21099;-69
2022/01/05 04:23:28;;;;;;;5.83;3.70;;;;;;;6.07;100.00;97508.25;1716360;81;20976;-68
2022/01/05 04:25:54;;;;;;;7.47;4.15;;;;;;;6.15;100.00;97502.98;1737886;81;21004;-69
2022/01/05 04:28:21;;;;;;;7.20;4.28;;;;;;;6.17;100.00;97507.53;1722949;82;21003;-70
2022/01/05 04:30:48;;;;;;;7.17;3.83;;;;;;;6.14;100.00;97506.77;1722279;82;21086;-69
2022/01/05 04:33:15;;;;;;;7.55;4.00;;;;;;;6.19;100.00;97512.64;1738144;81;20972;-69
2022/01/05 04:35:41;;;;;;;7.15;4.30;;;;;;;6.24;100.00;97514.70;1727475;82;21100;-69
2022/01/05 04:38:07;;;;;;;7.70;4.90;;;;;;;6.29;100.00;97511.11;1729023;82;21004;-69
2022/01/05 04:40:34;;;;;;;6.53;4.00;;;;;;;6.25;100.00;97500.64;1727545;82;21903;-69
2022/01/05 04:43:00;;;;;;;7.12;4.05;;;;;;;6.26;100.00;97495.50;1735087;82;20983;-69
2022/01/05 04:45:26;;;;;;;7.33;4.33;;;;;;;6.33;100.00;97492.66;1740346;82;21031;-69
2022/01/05 04:47:53;;;;;;;6.25;4.17;;;;;;;6.34;100.00;97508.33;1734951;82;20983;-69
2022/01/05 04:50:20;;;;;;;6.58;4.15;;;;;;;6.31;100.00;97511.59;1723853;82;20999;-69
2022/01/05 04:52:47;;;;;;;7.17;4.15;;;;;;;6.31;100.00;97499.44;1733614;82;21010;-69
2022/01/05 04:55:13;;;;;;;7.40;3.98;;;;;;;6.38;100.00;97497.15;1740874;82;20983;-69
2022/01/05 04:57:40;;;;;;;7.28;4.17;;;;;;;6.39;100.00;97506.32;1721649;82;20956;-69
2022/01/05 05:00:09;;;;;;;5.65;3.75;;;;;;;6.36;100.00;97498.02;1719451;82;21641;-69
2022/01/05 05:02:36;;;;;;;6.95;4.08;;;;;;;6.41;100.00;97500.63;1726750;82;21022;-68
2022/01/05 05:05:03;;;;;;;7.37;4.17;;;;;;;6.47;100.00;97500.23;1728688;82;21082;-69
2022/01/05 05:07:29;;;;;;;6.25;4.33;;;;;;;6.46;100.00;97505.38;1726207;82;21526;-68
2022/01/05 05:09:55;;;;;;;6.70;4.15;;;;;;;6.42;100.00;97487.34;1743974;82;21715;-69
2022/01/05 05:12:22;;;;;;;6.62;3.80;;;;;;;6.46;100.00;97495.11;1722852;82;21609;-69
2022/01/05 05:14:50;;;;;;;6.50;4.00;;;;;;;6.54;100.00;97493.08;1719348;82;21109;-68
2022/01/05 05:17:18;;;;;;;6.72;4.30;;;;;;;6.53;100.00;97509.58;1730291;82;21414;-67
2022/01/05 05:19:44;;;;;;;7.22;4.20;;;;;;;6.50;100.00;97491.52;1725974;82;21054;-69
2022/01/05 05:22:12;;;;;;;6.35;3.77;;;;;;;6.56;100.00;97503.03;1737600;82;21050;-68
2022/01/05 05:24:40;;;;;;;6.08;3.80;;;;;;;6.66;100.00;97517.70;1732567;82;21712;-68
2022/01/05 05:27:06;;;;;;;6.58;3.90;;;;;;;6.70;100.00;97519.25;1734587;82;21039;-68
2022/01/05 05:29:33;;;;;;;6.28;4.15;;;;;;;6.69;100.00;97521.72;1734490;82;21569;-68
2022/01/05 05:31:59;;;;;;;5.58;3.60;;;;;;;6.78;100.00;97532.08;1719642;82;21047;-69
2022/01/05 05:34:26;;;;;;;4.87;3.08;;;;;;;6.78;100.00;97532.08;1726099;82;21574;-69
2022/01/05 05:36:52;;;;;;;5.75;3.80;;;;;;;6.88;100.00;97533.23;1736640;82;21035;-69
2022/01/05 05:39:18;;;;;;;7.15;3.58;;;;;;;6.92;100.00;97539.64;1719998;82;21023;-69
2022/01/05 05:41:45;;;;;;;6.35;3.90;;;;;;;6.92;100.00;97545.05;1736245;82;21551;-69
2022/01/05 05:44:11;;;;;;;7.17;3.27;;;;;;;7.00;100.00;97551.12;1736115;82;20983;-69
2022/01/05 05:46:37;;;;;;;6.20;3.20;;;;;;;7.10;100.00;97561.73;1717825;83;21581;-69
2022/01/05 05:49:04;;;;;;;5.78;3.42;;;;;;;7.15;100.00;97541.89;1724377;82;20983;-69
2022/01/05 05:51:31;;;;;;;5.08;2.90;;;;;;;7.17;100.00;97563.48;1718369;82;21026;-69
2022/01/05 05:53:57;;;;;;;4.65;2.85;;;;;;;7.20;100.00;97558.81;1736573;82;20956;-69
2022/01/05 05:56:23;;;;;;;5.15;3.17;;;;;;;7.31;100.00;97560.20;1747289;82;21090;-69
2022/01/05 05:58:50;;;;;;;;;;;;;;;7.36;100.00;97560.11;1747381;82;21105;-69
2022/01/05 06:01:16;;;;;;;5.55;3.40;;;;;;;7.38;100.00;97574.68;1728476;82;20113;-69
2022/01/05 06:03:42;;;;;;;5.42;2.75;;;;;;;7.34;100.00;97578.54;1719723;82;21031;-69
2022/01/05 06:06:10;;;;;;;5.28;3.10;;;;;;;7.45;100.00;97578.58;1724838;82;21566;-69
2022/01/05 06:08:39;;;;;;;5.95;3.05;;;;;;;7.56;100.00;97577.81;1743501;82;21035;-69
2022/01/05 06:11:07;;;;;;;5.83;2.90;;;;;;;7.59;100.00;97576.39;1718150;82;21015;-68
2022/01/05 06:14:37;;;;;;;4.45;2.80;;;;;;;7.65;100.00;97575.97;1866793;76;23252;-69
2022/01/05 06:17:03;;;;;;;5.33;2.98;;;;;;;7.70;100.00;97571.00;1826704;77;21059;-69
2022/01/05 06:19:30;;;;;;;6.65;3.10;;;;;;;7.79;100.00;97597.63;1839722;77;21589;-69
2022/01/05 06:21:58;;;;;;;5.37;2.70;;;;;;;7.81;100.00;97584.56;1832284;77;21657;-68
2022/01/05 06:24:25;;;;;;;5.85;2.95;;;;;;;7.83;100.00;97583.14;1827998;77;20999;-69
2022/01/05 06:26:52;;;;;;;4.67;2.90;;;;;;;7.92;100.00;97577.81;1846143;77;21111;-68
2022/01/05 06:29:21;;;;;;;6.50;3.10;;;;;;;7.98;100.00;97593.64;1841701;77;21000;-69
2022/01/05 06:31:48;;;;;;;4.53;2.80;;;;;;;8.00;100.00;97594.70;1836155;76;21031;-68
2022/01/05 06:34:14;;;;;;;4.70;3.15;;;;;;;8.01;100.00;97609.28;1841543;77;21027;-69
2022/01/05 06:36:41;;;;;;;5.10;2.87;;;;;;;8.07;100.00;97604.56;1823888;77;21491;-68
2022/01/05 06:39:07;;;;;;;5.15;3.10;;;;;;;8.13;100.00;97614.16;1823601;77;21453;-69
2022/01/05 06:41:34;;;;;;;4.80;3.12;;;;;;;8.14;100.00;97614.97;1846046;77;21059;-69
2022/01/05 06:44:00;;;;;;;5.90;3.17;;;;;;;8.11;100.00;97623.17;1851957;77;21036;-69
2022/01/05 06:46:26;;;;;;;4.40;2.83;;;;;;;8.11;100.00;97627.23;1856587;77;21632;-69
2022/01/05 06:48:53;;;;;;;5.12;3.02;;;;;;;8.16;100.00;97623.03;1855960;77;21044;-69
2022/01/05 06:51:19;;;;;;;4.58;3.50;;;;;;;8.18;100.00;97628.16;1840804;77;21123;-69
2022/01/05 06:53:46;;;;;;;5.78;3.25;;;;;;;8.13;100.00;97637.20;1825878;77;21059;-68
2022/01/05 06:56:12;;;;;;;5.95;2.75;;;;;;;8.13;100.00;97633.13;1853058;77;21055;-69
2022/01/05 06:58:38;;;;;;;6.72;3.25;;;;;;;8.19;100.00;97636.52;1856360;77;21476;-68
2022/01/05 07:01:05;;;;;;;4.03;2.90;;;;;;;8.21;100.00;97630.25;1840298;77;21031;-69
2022/01/05 07:03:31;;;;;;;5.28;3.58;;;;;;;8.20;100.00;97622.67;1855688;77;21000;-70
2022/01/05 07:05:57;;;;;;;6.05;3.30;;;;;;;8.22;100.00;97625.08;1854022;77;21048;-67
2022/01/05 07:08:23;;;;;;;5.03;3.20;;;;;;;8.30;100.00;97639.27;1825165;77;21086;-68
2022/01/05 07:10:51;;;;;;;7.50;3.00;;;;;;;8.35;100.00;97647.30;1847867;77;21047;-69
2022/01/05 07:13:17;;;;;;;4.90;3.15;;;;;;;8.31;100.00;97652.52;1844329;77;21524;-69
2022/01/05 07:15:43;;;;;;;5.12;2.83;;;;;;;8.34;100.00;97662.75;1845447;77;21043;-68
2022/01/05 07:18:10;;;;;;;4.05;2.90;;;;;;;8.39;100.00;97664.00;1850113;77;21636;-68
2022/01/05 07:20:36;;;;;;;;;;;;;;;8.44;100.00;97665.22;1852541;77;21048;-69
2022/01/05 07:23:03;;;;;;;4.83;3.00;;;;;;;8.42;100.00;97661.22;1860016;77;20519;-69
2022/01/05 07:25:31;;;;;;;5.28;3.30;;;;;;;8.34;100.00;97662.75;1828287;77;21543;-69
2022/01/05 07:27:58;;;;;;;4.60;3.02;;;;;;;8.41;100.00;97671.81;1848632;77;21051;-68
2022/01/05 07:30:24;;;;;;;5.58;3.35;;;;;;;8.46;100.00;97665.73;1846844;77;21004;-69
2022/01/05 07:32:51;;;;;;;6.22;3.47;;;;;;;8.50;100.00;97670.76;1855112;77;21023;-71
2022/01/05 07:35:17;;;;;;;4.95;3.12;;;;;;;8.48;100.00;97675.70;1843839;77;21019;-69
2022/01/05 07:37:44;;;;;;;4.37;2.92;;;;;;;8.52;100.00;97675.08;1853062;77;21009;-69
2022/01/05 07:40:11;;;;;;;;;;;;;;;8.58;100.00;97676.55;1853218;76;20960;-68
2022/01/05 07:42:38;;;;;;;5.53;3.75;;;;;;;8.59;100.00;97680.33;1843114;77;20113;-69
2022/01/05 07:45:06;;;;;;;5.67;3.30;;;;;;;8.50;100.00;97682.95;1855349;77;20993;-69
2022/01/05 07:47:33;;;;;;;4.78;3.00;;;;;;;8.53;100.00;97678.05;1856823;77;21064;-69
2022/01/05 07:50:00;;;;;;;5.37;3.22;;;;;;;8.59;100.00;97679.52;1854874;77;20932;-68
2022/01/05 07:52:26;;;;;;;4.67;3.20;;;;;;;8.61;100.00;97680.03;1849102;77;21000;-68
2022/01/05 07:54:53;;;;;;;4.97;3.17;;;;;;;8.59;100.00;97692.53;1849480;77;21008;-68
2022/01/05 07:57:20;;;;;;;5.22;3.40;;;;;;;8.61;100.00;97691.66;1859676;77;21019;-69
2022/01/05 07:59:46;;;;;;;6.62;3.40;;;;;;;8.65;100.00;97696.71;1855095;77;21011;-69
2022/01/05 08:02:13;;;;;;;4.75;3.50;;;;;;;8.70;100.00;97714.78;1859879;77;21111;-69
2022/01/05 08:04:39;;;;;;;6.28;4.10;;;;;;;8.68;100.00;97716.44;1859672;77;21063;-70
2022/01/05 08:07:05;;;;;;;5.37;3.33;;;;;;;8.68;100.00;97720.50;1858525;76;21045;-69
2022/01/05 08:09:32;;;;;;;4.95;3.35;;;;;;;8.73;100.00;97720.94;1853261;77;21195;-68
2022/01/05 08:19:33;;;;;;;5.72;3.60;;;;;;;8.77;100.00;97726.00;1801570;79;22326;-68
2022/01/05 08:22:00;;;;;;;6.58;4.12;;;;;;;8.73;100.00;97734.50;1755173;80;21051;-69
2022/01/05 08:24:26;;;;;;;6.03;3.72;;;;;;;8.70;100.00;97740.55;1752854;82;21038;-69
2022/01/05 08:26:53;;;;;;;5.50;3.75;;;;;;;8.71;100.00;97739.45;1752414;82;21047;-69
2022/01/05 08:29:20;;;;;;;6.17;3.50;;;;;;;8.79;100.00;97741.41;1752635;82;21553;-70
2022/01/05 08:31:46;;;;;;;5.72;3.95;;;;;;;8.82;100.00;97739.45;1752936;82;21134;-69
2022/01/05 08:34:13;;;;;;;6.45;3.47;;;;;;;8.79;100.00;97738.69;1753050;82;21038;-69
2022/01/05 08:36:39;;;;;;;6.62;3.75;;;;;;;8.81;100.00;97736.48;1747676;82;21038;-69
2022/01/05 08:39:05;;;;;;;5.30;3.80;;;;;;;8.89;100.00;97730.33;1752246;82;21107;-69
2022/01/05 08:41:32;;;;;;;6.58;4.00;;;;;;;8.95;100.00;97738.58;1739229;82;21027;-70
2022/01/05 08:43:58;;;;;;;6.53;3.92;;;;;;;9.03;100.00;97735.69;1725313;82;21094;-69
2022/01/05 08:46:24;;;;;;;;;;;;;;;9.22;100.00;97728.92;1731630;82;21569;-69
2022/01/05 08:48:51;;;;;;;6.83;4.28;;;;;;;9.48;100.00;97728.50;1723629;82;20137;-69
2022/01/05 08:51:17;;;;;;;5.90;4.35;;;;;;;9.63;100.00;97726.48;1723458;82;21401;-69
2022/01/05 08:53:44;;;;;;;9.90;4.78;;;;;;;9.77;100.00;97729.89;1722874;83;21046;-70
2022/01/05 08:56:10;;;;;;;7.70;4.80;;;;;;;9.86;100.00;97720.64;1722929;82;21575;-69
2022/01/05 08:58:36;;;;;;;6.10;4.87;;;;;;;9.95;100.00;97723.40;1723165;83;21105;-70
2022/01/05 09:01:03;;;;;;;8.55;4.85;;;;;;;10.00;100.00;97724.59;1725327;82;21110;-69
2022/01/05 09:03:29;;;;;;;;;;;;;;;10.11;100.00;97725.09;1728644;82;21614;-69
2022/01/05 09:05:57;;;;;;;;;;;;;;;10.29;100.00;97728.12;1727671;82;20149;-70
2022/01/05 09:08:23;;;;;;;9.33;5.35;;;;;;;10.44;100.00;97729.02;1731668;82;20134;-70
2022/01/05 09:10:50;;;;;;;9.15;6.10;;;;;;;10.51;100.00;97727.98;1747597;82;21023;-70
2022/01/05 09:13:17;;;;;;;7.50;5.65;;;;;;;10.63;100.00;97727.36;1733733;82;21113;-70
2022/01/05 09:15:43;;;;;;;7.47;4.90;;;;;;;10.73;100.00;97730.56;1727649;82;21082;-69
2022/01/05 09:18:10;;;;;;;8.50;5.10;;;;;;;10.87;100.00;97726.30;1719011;83;21106;-69
2022/01/05 09:20:38;;;;;;;6.85;5.05;;;;;;;11.04;100.00;97716.74;1710034;84;21075;-71
2022/01/05 09:23:04;;;;;;;5.70;4.30;;;;;;;11.06;100.00;97727.30;1716480;82;21609;-71
2022/01/05 09:25:30;;;;;;;7.97;4.58;;;;;;;11.00;100.00;97721.23;1710434;84;21055;-70
2022/01/05 09:27:57;;;;;;;9.68;5.75;;;;;;;11.01;100.00;97726.92;1722059;82;21047;-70
2022/01/05 09:30:23;;;;;;;;;;;;;;;11.15;100.00;97729.45;1741923;82;21050;-71
2022/01/05 09:32:50;;;;;;;7.22;5.10;;;;;;;11.28;100.00;97725.73;1738845;82;20124;-70
2022/01/05 09:35:19;;;;;;;;;;;;;;;11.28;100.00;97733.34;1716949;82;21078;-70
2022/01/05 09:43:04;;;;;;;9.03;5.47;;;;;;;11.45;100.00;97761.09;1714196;82;21075;-70
2022/01/05 09:45:36;;;;;;;7.33;5.10;;;;;;;11.39;100.00;97762.40;1729463;82;21048;-70
2022/01/05 09:48:17;;;;;;;6.37;4.83;;;;;;;11.25;100.00;97765.88;1729654;82;21072;-69
2022/01/05 09:50:52;;;;;;;6.22;4.30;;;;;;;11.08;100.00;97774.87;1716868;82;21119;-70
2022/01/05 09:53:20;;;;;;;6.12;4.35;;;;;;;10.91;100.00;97765.38;1731044;81;21019;-70
2022/01/05 09:55:51;;;;;;;7.12;4.85;;;;;;;10.82;100.00;97772.72;1722667;82;21118;-70
2022/01/05 09:58:14;;;;;;;7.35;5.12;;;;;;;10.77;100.00;97768.81;1736557;81;21031;-70
2022/01/05 10:00:41;;;;;;;6.15;4.20;;;;;;;10.87;100.00;97787.55;1739067;82;21044;-71
2022/01/05 10:03:09;;;;;;;8.05;4.65;;;;;;;10.92;100.00;97782.73;1715121;82;21079;-70
2022/01/05 10:05:36;;;;;;;5.92;4.30;;;;;;;10.88;100.00;97797.29;1709262;82;21122;-71
2022/01/05 10:08:02;;;;;;;7.25;4.78;;;;;;;10.75;100.00;97794.98;1726325;81;21004;-69
2022/01/05 10:10:28;;;;;;;;;;;;;;;10.57;100.00;97808.88;1741231;82;21039;-69
2022/01/05 10:12:54;;;;;;;6.92;4.70;;;;;;;10.34;100.00;97803.58;1737739;81;20095;-70
2022/01/05 10:15:21;;;;;;;6.10;4.40;;;;;;;10.17;100.00;97807.58;1738729;82;21063;-70
2022/01/05 10:17:47;;;;;;;7.40;5.12;;;;;;;10.03;100.00;97813.66;1739274;81;21036;-70
2022/01/05 10:20:14;;;;;;;9.43;5.53;;;;;;;9.86;100.00;97813.59;1753007;82;21080;-69
2022/01/05 10:22:44;;;;;;;6.75;4.78;;;;;;;9.75;100.00;97825.30;1723604;82;21467;-70
2022/01/05 10:25:18;;;;;;;6.80;4.67;;;;;;;9.69;100.00;97823.84;1722794;83;21556;-70
2022/01/05 10:27:56;;;;;;;7.97;5.05;;;;;;;9.75;100.00;97828.56;1664793;85;21590;-70
2022/01/05 10:30:42;;;;;;;7.62;4.75;;;;;;;9.80;100.00;97814.30;1722877;83;21440;-69
2022/01/05 10:33:08;;;;;;;8.88;5.60;;;;;;;9.78;100.00;97812.99;1725201;82;21101;-69
2022/01/05 10:35:35;;;;;;;;;;;;;;;9.76;100.00;97821.47;1746169;81;21113;-70
2022/01/05 10:38:07;;;;;;;9.30;5.80;;;;;;;9.72;100.00;97812.89;1737562;82;20116;-70
2022/01/05 10:40:36;;;;;;;11.25;6.15;;;;;;;9.58;100.00;97808.91;1737646;82;21034;-70
2022/01/05 10:43:11;;;;;;;8.83;5.05;;;;;;;9.53;100.00;97801.47;1748638;80;21055;-70
2022/01/05 10:45:43;;;;;;;7.30;4.58;;;;;;;9.60;100.00;97806.67;1767020;80;21171;-70
2022/01/05 10:48:16;;;;;;;7.15;4.55;;;;;;;9.71;100.00;97805.84;1738560;80;20959;-70
2022/01/05 10:50:43;;;;;;;7.20;4.97;;;;;;;9.88;100.00;97795.08;1741811;82;21569;-70
2022/01/05 10:53:13;;;;;;;8.45;5.03;;;;;;;10.14;100.00;97796.50;1731321;82;20998;-70
2022/01/05 10:55:42;;;;;;;8.00;4.87;;;;;;;10.32;100.00;97797.63;1637269;86;21105;-70
2022/01/05 10:58:11;;;;;;;7.50;4.92;;;;;;;10.40;100.00;97797.41;1742084;82;20978;-71
2022/01/05 11:00:53;;;;;;;7.60;5.35;;;;;;;10.45;100.00;97798.64;1732765;81;21103;-69
2022/01/05 11:03:27;;;;;;;6.67;4.85;;;;;;;10.55;100.00;97795.61;1744783;82;21563;-70
2022/01/05 11:06:13;;;;;;;6.58;4.78;;;;;;;10.72;100.00;97789.38;1749591;82;21656;-70
2022/01/05 11:09:03;;;;;;;8.48;4.70;;;;;;;10.96;100.00;97800.58;1722944;83;21046;-70
2022/01/05 11:11:36;;;;;;;6.62;4.80;;;;;;;11.18;100.00;97802.33;1725051;82;21019;-70
2022/01/05 11:14:12;;;;;;;7.08;4.92;;;;;;;11.16;100.00;97811.40;1746781;81;21003;-69
2022/01/05 11:16:43;;;;;;;8.20;4.58;;;;;;;11.14;100.00;97810.34;1731488;82;21062;-69
2022/01/05 11:19:30;;;;;;;7.72;5.00;;;;;;;11.11;100.00;97808.83;1719679;82;21715;-71
2022/01/05 11:22:17;;;;;;;7.15;4.17;;;;;;;11.09;100.00;97818.66;1716782;83;21543;-70
2022/01/05 11:24:51;;;;;;;6.07;4.40;;;;;;;11.18;100.00;97823.56;1736617;81;21039;-70
2022/01/05 11:27:27;;;;;;;5.53;3.95;;;;;;;11.12;100.00;97828.94;1733294;82;21646;-69
2022/01/05 11:29:54;;;;;;;5.33;4.03;;;;;;;11.03;100.00;97825.41;1717165;83;21090;-68
2022/01/05 11:32:24;;;;;;;6.42;4.05;;;;;;;10.79;100.00;97829.97;1731093;82;21019;-69
2022/01/05 11:34:51;;;;;;;5.97;3.75;;;;;;;10.61;100.00;97826.17;1747022;81;21084;-69
2022/01/05 11:37:18;;;;;;;6.00;4.33;;;;;;;10.56;100.00;97822.26;1731640;82;21052;-68
2022/01/05 11:39:47;;;;;;;5.78;3.30;;;;;;;10.53;100.00;97822.86;1737400;81;21022;-69
2022/01/05 11:42:15;;;;;;;6.12;4.17;;;;;;;10.45;100.00;97822.53;1742732;82;21008;-68
2022/01/05 11:44:52;;;;;;;4.30;3.33;;;;;;;10.31;100.00;97823.22;1740278;82;21003;-68
2022/01/05 11:47:25;;;;;;;6.12;3.40;;;;;;;10.18;100.00;97835.02;1735750;82;21526;-68
2022/01/05 11:49:53;;;;;;;5.12;3.60;;;;;;;10.09;100.00;97834.17;1680150;85;21394;-68
2022/01/05 11:52:26;;;;;;;5.17;3.55;;;;;;;9.99;100.00;97834.43;1720359;82;21090;-68
2022/01/05 11:55:02;;;;;;;5.22;3.25;;;;;;;9.87;100.00;97835.59;1700629;82;21027;-68